Central Virginia Flyers


Central Virginia Flyers is a 10 member flying club based in Richmond, VA at Hanover County Airport (KOFP). We own N787AT, a 1977 Cessna 172 with 180hp conversion. If you are interested in membership, please contact Brenton at [email protected]


Aviation Digital Data Service (ADDS)

Output produced by METARs form (0828 UTC 26 August 2016)
found at http://aviationweather.gov/adds/metars/
 
KOFP 260754Z AUTO 17003KT 9SM CLR 24/21 A3005 RMK AO2 SLP174 T02390211
KRIC 260754Z 20005KT 10SM CLR 23/21 A3004 RMK AO2 SLP176 T02280206
KRIC 260539Z 2606/2706 20004KT P6SM SKC 
     FM261500 02004KT P6SM SCT050 
     FM262200 12004KT P6SM SKC